createdAt,value
2018-02-03T00:00:17.668Z,44.70
2018-02-03T00:02:45.153Z,44.70
2018-02-03T00:05:13.434Z,44.50
2018-02-03T00:07:40.915Z,44.50
2018-02-03T00:10:08.385Z,44.50
2018-02-03T00:12:35.835Z,44.60
2018-02-03T00:15:03.360Z,44.50
2018-02-03T00:17:30.871Z,44.50
2018-02-03T00:19:58.329Z,44.40
2018-02-03T00:22:25.801Z,44.40
2018-02-03T00:24:53.299Z,44.40
2018-02-03T00:27:20.746Z,44.40
2018-02-03T00:29:49.016Z,44.40
2018-02-03T00:32:17.258Z,44.30
2018-02-03T00:34:44.728Z,44.30
2018-02-03T00:37:12.190Z,44.30
2018-02-03T00:39:39.664Z,44.30
2018-02-03T00:42:07.946Z,44.00
2018-02-03T00:44:35.408Z,44.20
2018-02-03T00:47:03.636Z,44.20
2018-02-03T00:49:31.088Z,44.20
2018-02-03T00:51:58.560Z,44.10
2018-02-03T00:54:26.834Z,44.10
2018-02-03T00:56:54.312Z,44.10
2018-02-03T00:59:21.765Z,44.10
2018-02-03T01:01:49.236Z,44.00
2018-02-03T01:04:17.478Z,44.10
2018-02-03T01:06:44.992Z,44.10
2018-02-03T01:09:13.232Z,44.10
2018-02-03T01:11:40.707Z,43.90
2018-02-03T01:14:08.178Z,44.60
2018-02-03T01:16:36.421Z,43.90
2018-02-03T01:19:03.932Z,43.90
2018-02-03T01:21:32.165Z,43.90
2018-02-03T01:23:59.633Z,43.90
2018-02-03T01:26:27.883Z,44.60
2018-02-03T01:28:55.363Z,43.80
2018-02-03T01:31:23.009Z,43.90
2018-02-03T01:33:50.643Z,43.80
2018-02-03T01:36:18.127Z,43.80
2018-02-03T01:38:45.599Z,43.80
2018-02-03T01:41:13.067Z,43.80
2018-02-03T01:43:41.347Z,43.70
2018-02-03T01:46:08.803Z,43.70
2018-02-03T01:48:36.269Z,43.70
2018-02-03T01:51:04.497Z,43.70
2018-02-03T01:53:31.979Z,43.70
2018-02-03T01:55:59.461Z,43.70
2018-02-03T01:58:27.701Z,43.70
2018-02-03T02:00:55.167Z,43.60
2018-02-03T02:03:22.630Z,43.60
2018-02-03T02:05:50.086Z,43.60
2018-02-03T02:08:17.593Z,43.60
2018-02-03T02:10:45.826Z,43.60
2018-02-03T02:13:13.288Z,43.60
2018-02-03T02:15:40.760Z,43.60
2018-02-03T02:18:08.214Z,43.60
2018-02-03T02:20:35.708Z,43.60
2018-02-03T02:23:03.176Z,43.50
2018-02-03T02:25:30.636Z,43.50
2018-02-03T02:27:58.088Z,43.50
2018-02-03T02:30:25.556Z,43.40
2018-02-03T02:32:53.034Z,43.40
2018-02-03T02:35:20.502Z,43.40
2018-02-03T02:37:47.960Z,43.40
2018-02-03T02:40:15.430Z,43.40
2018-02-03T02:42:42.950Z,43.30
2018-02-03T02:45:10.450Z,43.30
2018-02-03T02:47:37.920Z,43.30
2018-02-03T02:50:06.172Z,43.30
2018-02-03T02:52:33.647Z,43.30
2018-02-03T02:55:01.119Z,43.30
2018-02-03T02:57:29.563Z,43.40
2018-02-03T02:59:57.036Z,43.20
2018-02-03T03:02:24.491Z,43.20
2018-02-03T03:04:51.958Z,43.30
2018-02-03T03:07:19.469Z,43.30
2018-02-03T03:09:46.966Z,43.20
2018-02-03T03:12:14.432Z,43.30
2018-02-03T03:14:41.917Z,43.20
2018-02-03T03:17:09.388Z,43.20
2018-02-03T03:19:36.839Z,43.20
2018-02-03T03:22:04.355Z,43.20
2018-02-03T03:24:31.813Z,43.20
2018-02-03T03:26:59.275Z,43.20
2018-02-03T03:29:26.739Z,43.20
2018-02-03T03:31:54.359Z,43.10
2018-02-03T03:34:21.810Z,43.10
2018-02-03T03:36:49.278Z,43.10
2018-02-03T03:39:16.754Z,43.10
2018-02-03T03:41:44.232Z,43.20
2018-02-03T03:44:11.871Z,43.10
2018-02-03T03:46:39.322Z,43.00
2018-02-03T03:49:06.789Z,43.10
2018-02-03T03:51:34.255Z,43.10
2018-02-03T03:54:01.710Z,43.10
2018-02-03T03:56:29.201Z,43.10
2018-02-03T03:58:57.450Z,43.10
2018-02-03T04:01:24.916Z,43.00
2018-02-03T04:03:52.368Z,43.00
2018-02-03T04:06:19.858Z,43.00
2018-02-03T04:08:48.130Z,43.00
2018-02-03T04:11:16.358Z,42.90
2018-02-03T04:13:43.826Z,43.00
2018-02-03T04:16:11.280Z,43.00
2018-02-03T04:18:38.758Z,43.00
2018-02-03T04:21:06.266Z,43.00
2018-02-03T04:23:33.732Z,42.90
2018-02-03T04:26:01.196Z,42.90
2018-02-03T04:28:28.658Z,43.00
2018-02-03T04:30:56.124Z,42.90
2018-02-03T04:33:23.639Z,42.90
2018-02-03T04:35:51.111Z,42.90
2018-02-03T04:38:18.589Z,42.90
2018-02-03T04:40:46.061Z,42.40
2018-02-03T04:43:13.521Z,42.40
2018-02-03T04:45:41.010Z,43.20
2018-02-03T04:48:08.481Z,43.30
2018-02-03T04:50:36.707Z,42.90
2018-02-03T04:53:04.166Z,42.90
2018-02-03T04:55:31.631Z,42.90
2018-02-03T04:57:59.125Z,42.90
2018-02-03T05:00:26.595Z,42.80
2018-02-03T05:02:54.827Z,43.00
2018-02-03T05:05:22.289Z,42.80
2018-02-03T05:07:49.747Z,42.60
2018-02-03T05:10:17.249Z,42.60
2018-02-03T05:12:45.483Z,42.70
2018-02-03T05:15:12.933Z,42.70
2018-02-03T05:17:40.411Z,42.60
2018-02-03T05:20:07.883Z,42.70
2018-02-03T05:22:36.163Z,42.60
2018-02-03T05:25:04.544Z,42.60
2018-02-03T05:27:32.011Z,42.60
2018-02-03T05:29:59.456Z,42.60
2018-02-03T05:32:26.936Z,42.40
2018-02-03T05:34:54.424Z,42.60
2018-02-03T05:37:21.871Z,42.50
2018-02-03T05:39:49.424Z,42.70
2018-02-03T05:42:16.886Z,42.70
2018-02-03T05:44:45.913Z,42.70
2018-02-03T05:47:13.396Z,42.60
2018-02-03T05:49:40.900Z,42.70
2018-02-03T05:52:08.369Z,42.60
2018-02-03T05:54:35.828Z,42.60
2018-02-03T05:57:03.306Z,42.60
2018-02-03T05:59:30.773Z,42.60
2018-02-03T06:01:58.226Z,42.60
2018-02-03T06:04:25.728Z,42.70
2018-02-03T06:06:53.201Z,42.70
2018-02-03T06:09:20.672Z,42.70
2018-02-03T06:11:48.160Z,42.70
2018-02-03T06:14:17.576Z,42.70
2018-02-03T06:16:45.069Z,42.70
2018-02-03T06:19:12.563Z,42.60
2018-02-03T06:21:40.041Z,42.70
2018-02-03T06:24:07.509Z,42.60
2018-02-03T06:26:34.989Z,42.60
2018-02-03T06:29:03.255Z,42.70
2018-02-03T06:31:30.725Z,42.60
2018-02-03T06:33:58.969Z,42.60
2018-02-03T06:36:26.613Z,42.50
2018-02-03T06:38:54.065Z,42.50
2018-02-03T06:41:21.561Z,42.40
2018-02-03T06:43:49.819Z,42.40
2018-02-03T06:46:17.287Z,42.40
2018-02-03T06:48:44.738Z,42.40
2018-02-03T06:51:12.385Z,42.30
2018-02-03T06:53:39.885Z,42.20
2018-02-03T06:56:08.121Z,43.10
2018-02-03T06:58:35.795Z,42.50
2018-02-03T07:01:03.272Z,45.00
2018-02-03T07:03:31.525Z,43.80
2018-02-03T07:05:59.015Z,43.60
2018-02-03T07:08:27.257Z,44.40
2018-02-03T07:10:54.733Z,43.80
2018-02-03T07:13:22.413Z,43.90
2018-02-03T07:15:49.884Z,44.00
2018-02-03T07:18:18.150Z,44.00
2018-02-03T07:20:45.618Z,44.00
2018-02-03T07:23:13.835Z,45.00
2018-02-03T07:25:41.305Z,45.00
2018-02-03T07:28:08.909Z,44.90
2018-02-03T07:30:36.471Z,45.20
2018-02-03T07:33:03.902Z,45.00
2018-02-03T07:35:31.370Z,45.10
2018-02-03T07:37:58.913Z,45.80
2018-02-03T07:40:26.386Z,45.10
2018-02-03T07:42:53.908Z,45.40
2018-02-03T07:45:21.399Z,45.20
2018-02-03T07:47:48.890Z,45.30
2018-02-03T07:50:16.378Z,45.30
2018-02-03T07:52:43.866Z,45.40
2018-02-03T07:55:11.374Z,45.40
2018-02-03T07:57:38.856Z,45.10
2018-02-03T08:00:06.326Z,45.20
2018-02-03T08:02:33.819Z,45.00
2018-02-03T08:05:01.301Z,45.20
2018-02-03T08:07:29.558Z,45.20
2018-02-03T08:09:57.014Z,45.10
2018-02-03T08:12:24.496Z,45.10
2018-02-03T08:14:52.118Z,45.20
2018-02-03T08:17:19.570Z,45.30
2018-02-03T08:19:47.078Z,45.00
2018-02-03T08:22:14.894Z,45.10
2018-02-03T08:24:42.349Z,45.30
2018-02-03T08:27:09.804Z,45.40
2018-02-03T08:29:37.279Z,45.50
2018-02-03T08:32:05.766Z,45.60
2018-02-03T08:34:33.218Z,44.80
2018-02-03T08:37:00.660Z,45.30
2018-02-03T08:39:28.138Z,44.90
2018-02-03T08:41:55.633Z,45.00
2018-02-03T08:44:23.888Z,45.00
2018-02-03T08:46:52.149Z,44.80
2018-02-03T08:49:19.613Z,44.60
2018-02-03T08:51:47.097Z,44.70
2018-02-03T08:54:15.325Z,44.80
2018-02-03T08:56:42.810Z,44.70
2018-02-03T08:59:10.259Z,44.60
2018-02-03T09:01:37.733Z,44.80
2018-02-03T09:04:05.194Z,44.90
2018-02-03T09:06:33.438Z,44.80
2018-02-03T09:09:00.912Z,44.70
2018-02-03T09:11:28.395Z,44.70
2018-02-03T09:13:56.810Z,42.90
2018-02-03T09:16:24.287Z,42.90
2018-02-03T09:18:51.784Z,43.40
2018-02-03T09:21:19.277Z,44.10
2018-02-03T09:23:46.734Z,44.50
2018-02-03T09:26:14.218Z,44.70
2018-02-03T09:28:41.683Z,44.50
2018-02-03T09:31:09.172Z,44.60
2018-02-03T09:33:36.664Z,45.50
2018-02-03T09:36:04.124Z,45.40
2018-02-03T09:38:31.632Z,45.10
2018-02-03T09:40:59.122Z,44.80
2018-02-03T09:43:27.398Z,44.80
2018-02-03T09:45:55.626Z,44.80
2018-02-03T09:48:23.110Z,44.80
2018-02-03T09:50:50.626Z,44.80
2018-02-03T09:53:18.119Z,44.80
2018-02-03T09:55:45.607Z,44.20
2018-02-03T09:58:13.868Z,45.00
2018-02-03T10:00:42.848Z,45.00
2018-02-03T10:03:10.333Z,44.90
2018-02-03T10:05:38.599Z,45.30
2018-02-03T10:08:06.909Z,45.70
2018-02-03T10:10:35.148Z,45.50
2018-02-03T10:13:02.624Z,45.50
2018-02-03T10:15:30.894Z,45.60
2018-02-03T10:17:58.413Z,45.50
2018-02-03T10:20:25.907Z,45.30
2018-02-03T10:22:53.619Z,45.50
2018-02-03T10:25:21.115Z,45.90
2018-02-03T10:27:48.841Z,47.40
2018-02-03T10:30:17.097Z,47.70
2018-02-03T10:32:44.691Z,47.60
2018-02-03T10:35:12.370Z,46.90
2018-02-03T10:37:40.038Z,47.90
2018-02-03T10:40:07.526Z,48.20
2018-02-03T10:42:35.757Z,48.20
2018-02-03T10:45:03.404Z,48.10
2018-02-03T10:47:30.893Z,48.30
2018-02-03T10:49:58.360Z,48.00
2018-02-03T10:52:25.830Z,48.10
2018-02-03T10:54:54.075Z,48.80
2018-02-03T10:57:21.563Z,48.70
2018-02-03T10:59:49.083Z,48.50
2018-02-03T11:02:16.646Z,48.20
2018-02-03T11:04:44.126Z,48.00
2018-02-03T11:07:11.632Z,47.60
2018-02-03T11:09:39.276Z,47.90
2018-02-03T11:12:07.548Z,47.90
2018-02-03T11:14:35.814Z,48.10
2018-02-03T11:17:03.291Z,47.90
2018-02-03T11:19:31.553Z,47.90
2018-02-03T11:21:59.028Z,47.90
2018-02-03T11:24:27.292Z,48.00
2018-02-03T11:26:54.750Z,48.00
2018-02-03T11:29:22.226Z,49.10
2018-02-03T11:31:50.463Z,48.10
2018-02-03T11:34:17.938Z,48.10
2018-02-03T11:36:45.446Z,47.80
2018-02-03T11:39:12.932Z,47.80
2018-02-03T11:41:41.929Z,47.70
2018-02-03T11:44:09.412Z,47.70
2018-02-03T11:46:36.905Z,47.90
2018-02-03T11:49:04.376Z,47.80
2018-02-03T11:51:31.862Z,47.90
2018-02-03T11:53:59.338Z,47.90
2018-02-03T11:56:26.885Z,47.70
2018-02-03T11:58:54.363Z,47.90
2018-02-03T12:01:21.844Z,47.90
2018-02-03T12:03:50.118Z,47.80
2018-02-03T12:06:18.370Z,47.80
2018-02-03T12:08:45.881Z,47.80
2018-02-03T12:11:13.339Z,48.10
2018-02-03T12:13:40.885Z,47.40
2018-02-03T12:16:08.357Z,47.30
2018-02-03T12:18:35.804Z,46.80
2018-02-03T12:21:03.488Z,46.80
2018-02-03T12:23:30.970Z,46.60
2018-02-03T12:25:58.435Z,46.70
2018-02-03T12:28:25.903Z,46.80
2018-02-03T12:30:53.490Z,46.70
2018-02-03T12:33:20.984Z,46.40
2018-02-03T12:35:48.457Z,46.60
2018-02-03T12:38:15.907Z,46.60
2018-02-03T12:40:44.137Z,46.60
2018-02-03T12:43:11.608Z,46.60
2018-02-03T12:45:39.132Z,46.60
2018-02-03T12:48:06.596Z,46.40
2018-02-03T12:50:34.060Z,46.50
2018-02-03T12:53:02.300Z,46.60
2018-02-03T12:55:29.775Z,46.60
2018-02-03T12:57:57.273Z,46.30
2018-02-03T13:00:24.744Z,46.30
2018-02-03T13:02:52.746Z,46.40
2018-02-03T13:05:20.210Z,46.40
2018-02-03T13:07:47.681Z,46.50
2018-02-03T13:10:15.972Z,46.40
2018-02-03T13:12:44.216Z,46.40
2018-02-03T13:15:11.694Z,46.40
2018-02-03T13:17:39.243Z,46.30
2018-02-03T13:20:06.711Z,46.40
2018-02-03T13:22:34.215Z,46.10
2018-02-03T13:25:01.677Z,46.10
2018-02-03T13:27:29.140Z,45.90
2018-02-03T13:29:56.623Z,46.30
2018-02-03T13:32:24.088Z,46.30
2018-02-03T13:34:51.606Z,46.30
2018-02-03T13:37:19.057Z,46.20
2018-02-03T13:39:46.504Z,46.30
2018-02-03T13:42:14.744Z,46.30
2018-02-03T13:44:42.205Z,46.30
2018-02-03T13:47:10.496Z,46.20
2018-02-03T13:49:38.124Z,46.10
2018-02-03T13:52:05.614Z,46.00
2018-02-03T13:54:33.852Z,46.00
2018-02-03T13:57:01.385Z,46.00
2018-02-03T13:59:28.858Z,46.00
2018-02-03T14:01:56.357Z,46.20
2018-02-03T14:04:24.060Z,45.90
2018-02-03T14:06:51.573Z,45.80
2018-02-03T14:09:19.050Z,46.10
2018-02-03T14:11:47.317Z,46.80
2018-02-03T14:14:14.854Z,46.80
2018-02-03T14:16:42.379Z,46.90
2018-02-03T14:19:09.852Z,47.00
2018-02-03T14:21:37.385Z,47.20
2018-02-03T14:24:10.627Z,47.40
2018-02-03T14:26:38.166Z,47.20
2018-02-03T14:29:05.711Z,47.30
2018-02-03T14:31:33.187Z,47.60
2018-02-03T14:34:00.665Z,47.60
2018-02-03T14:36:28.149Z,47.60
2018-02-03T14:38:55.650Z,47.60
2018-02-03T14:41:23.137Z,47.60
2018-02-03T14:43:50.646Z,47.50
2018-02-03T14:46:18.930Z,47.60
2018-02-03T14:48:47.183Z,47.50
2018-02-03T14:51:15.455Z,48.10
2018-02-03T14:53:42.962Z,47.50
2018-02-03T14:56:11.187Z,47.40
2018-02-03T14:58:38.702Z,47.40
2018-02-03T15:01:06.976Z,47.30
2018-02-03T15:03:34.445Z,47.30
2018-02-03T15:06:01.896Z,47.20
2018-02-03T15:08:29.372Z,47.20
2018-02-03T15:10:56.840Z,47.30
2018-02-03T15:13:24.317Z,47.20
2018-02-03T15:15:51.798Z,47.30
2018-02-03T15:18:20.200Z,47.30
2018-02-03T15:20:47.716Z,47.30
2018-02-03T15:23:15.194Z,47.30
2018-02-03T15:25:42.668Z,47.40
2018-02-03T15:28:10.160Z,47.30
2018-02-03T15:30:37.632Z,47.10
2018-02-03T15:33:05.313Z,47.40
2018-02-03T15:35:32.809Z,47.30
2018-02-03T15:38:00.356Z,47.20
2018-02-03T15:40:27.855Z,47.00
2018-02-03T15:42:55.341Z,47.10
2018-02-03T15:45:22.963Z,47.20
2018-02-03T15:47:50.433Z,47.20
2018-02-03T15:50:17.908Z,47.20
2018-02-03T15:52:45.413Z,47.00
2018-02-03T15:55:13.651Z,47.10
2018-02-03T15:57:41.156Z,47.00
2018-02-03T16:00:08.709Z,46.90
2018-02-03T16:02:36.189Z,47.00
2018-02-03T16:05:03.731Z,47.00
2018-02-03T16:07:31.203Z,46.90
2018-02-03T16:09:59.201Z,46.90
2018-02-03T16:12:26.716Z,46.80
2018-02-03T16:14:54.975Z,47.50
2018-02-03T16:17:23.225Z,46.80
2018-02-03T16:19:50.759Z,46.80
2018-02-03T16:22:18.257Z,46.80
2018-02-03T16:24:45.771Z,46.70
2018-02-03T16:27:13.436Z,46.80
2018-02-03T16:29:40.933Z,46.70
2018-02-03T16:32:08.420Z,46.70
2018-02-03T16:34:36.659Z,46.80
2018-02-03T16:37:04.150Z,46.80
2018-02-03T16:39:32.387Z,46.90
2018-02-03T16:41:59.869Z,46.90
2018-02-03T16:44:27.355Z,46.60
2018-02-03T16:46:54.861Z,46.60
2018-02-03T16:49:22.348Z,46.60
2018-02-03T16:51:49.823Z,46.70
2018-02-03T16:54:17.366Z,46.70
2018-02-03T16:56:45.616Z,46.80
2018-02-03T16:59:13.120Z,46.80
2018-02-03T17:01:41.396Z,47.00
2018-02-03T17:04:09.834Z,47.30
2018-02-03T17:06:37.324Z,47.30
2018-02-03T17:09:04.796Z,47.10
2018-02-03T17:11:33.225Z,47.50
2018-02-03T17:14:01.519Z,47.60
2018-02-03T17:16:29.045Z,47.50
2018-02-03T17:22:26.903Z,47.30
2018-02-03T17:24:54.401Z,47.20
2018-02-03T17:27:21.889Z,47.50
2018-02-03T17:29:49.422Z,47.40
2018-02-03T17:32:16.919Z,47.90
2018-02-03T17:34:44.395Z,47.20
2018-02-03T17:37:17.466Z,47.20
2018-02-03T17:39:44.958Z,47.50
2018-02-03T17:42:12.467Z,47.50
2018-02-03T17:44:39.958Z,47.40
2018-02-03T17:47:08.369Z,47.40
2018-02-03T17:49:35.825Z,47.30
2018-02-03T17:52:03.280Z,47.20
2018-02-03T17:54:30.791Z,47.60
2018-02-03T17:57:03.944Z,47.70
2018-02-03T17:59:31.446Z,47.60
2018-02-03T18:01:58.918Z,47.50
2018-02-03T18:04:27.206Z,47.40
2018-02-03T18:07:00.471Z,47.50
2018-02-03T18:09:27.981Z,47.50
2018-02-03T18:11:55.507Z,47.50
2018-02-03T18:14:23.770Z,47.40
2018-02-03T18:16:51.261Z,47.40
2018-02-03T18:19:19.834Z,47.30
2018-02-03T18:21:48.095Z,47.30
2018-02-03T18:24:15.607Z,47.40
2018-02-03T18:26:43.204Z,47.10
2018-02-03T18:29:10.686Z,47.30
2018-02-03T18:31:38.969Z,47.20
2018-02-03T18:34:06.578Z,47.10
2018-02-03T18:36:34.077Z,47.00
2018-02-03T18:39:01.563Z,46.90
2018-02-03T18:41:29.792Z,46.90
2018-02-03T18:43:57.290Z,46.90
2018-02-03T18:46:25.710Z,46.90
2018-02-03T18:48:53.191Z,46.90
2018-02-03T18:51:20.732Z,47.00
2018-02-03T18:53:48.225Z,46.90
2018-02-03T18:56:15.724Z,46.90
2018-02-03T18:58:43.198Z,46.90
2018-02-03T19:01:10.708Z,47.00
2018-02-03T19:03:38.165Z,47.00
2018-02-03T19:06:06.437Z,46.80
2018-02-03T19:08:33.902Z,46.70
2018-02-03T19:11:02.252Z,46.70
2018-02-03T19:13:29.753Z,46.70
2018-02-03T19:15:57.328Z,46.70
2018-02-03T19:18:24.835Z,46.60
2018-02-03T19:20:52.347Z,46.70
2018-02-03T19:23:19.831Z,46.60
2018-02-03T19:25:47.328Z,46.70
2018-02-03T19:28:15.602Z,46.80
2018-02-03T19:30:43.248Z,46.70
2018-02-03T19:33:10.753Z,46.90
2018-02-03T19:35:39.009Z,46.70
2018-02-03T19:38:06.470Z,46.60
2018-02-03T19:40:34.711Z,46.90
2018-02-03T19:43:02.179Z,46.40
2018-02-03T19:45:29.773Z,46.40
2018-02-03T19:47:57.273Z,46.30
2018-02-03T19:50:24.768Z,46.30
2018-02-03T19:52:52.230Z,46.30
2018-02-03T19:55:19.869Z,46.40
2018-02-03T19:57:47.354Z,46.40
2018-02-03T20:00:14.865Z,46.20
2018-02-03T20:02:42.339Z,46.20
2018-02-03T20:05:09.807Z,46.20
2018-02-03T20:07:37.267Z,46.30
2018-02-03T20:10:04.766Z,46.30
2018-02-03T20:12:32.417Z,46.30
2018-02-03T20:14:59.899Z,46.20
2018-02-03T20:17:27.387Z,46.20
2018-02-03T20:19:55.098Z,46.10
2018-02-03T20:22:22.591Z,46.10
2018-02-03T20:24:50.093Z,46.10
2018-02-03T20:27:18.596Z,46.00
2018-02-03T20:29:46.071Z,46.00
2018-02-03T20:32:13.586Z,46.00
2018-02-03T20:34:41.091Z,46.00
2018-02-03T20:37:08.580Z,46.00
2018-02-03T20:39:36.062Z,46.00
2018-02-03T20:42:03.542Z,46.20
2018-02-03T20:44:31.056Z,46.50
2018-02-03T20:46:58.522Z,46.40
2018-02-03T20:49:25.994Z,46.40
2018-02-03T20:51:53.475Z,46.20
2018-02-03T20:54:21.101Z,46.30
2018-02-03T20:56:48.601Z,46.20
2018-02-03T20:59:16.092Z,46.20
2018-02-03T21:01:43.591Z,46.30
2018-02-03T21:04:11.070Z,46.10
2018-02-03T21:06:38.550Z,46.00
2018-02-03T21:09:06.021Z,46.10
2018-02-03T21:11:33.503Z,45.90
2018-02-03T21:14:01.005Z,45.90
2018-02-03T21:16:28.501Z,45.90
2018-02-03T21:18:55.995Z,45.80
2018-02-03T21:21:23.650Z,45.90
2018-02-03T21:23:51.119Z,45.70
2018-02-03T21:26:18.604Z,46.00
2018-02-03T21:28:46.885Z,46.20
2018-02-03T21:31:14.368Z,46.20
2018-02-03T21:33:41.855Z,46.20
2018-02-03T21:36:09.337Z,46.20
2018-02-03T21:38:36.797Z,46.20
2018-02-03T21:41:04.288Z,46.40
2018-02-03T21:43:32.529Z,46.40
2018-02-03T21:46:00.010Z,46.30
2018-02-03T21:48:27.536Z,46.50
2018-02-03T21:50:54.996Z,46.50
2018-02-03T21:53:22.494Z,46.50
2018-02-03T21:55:50.753Z,46.50
2018-02-03T21:58:18.241Z,46.50
2018-02-03T22:00:46.524Z,46.50
2018-02-03T22:03:14.013Z,46.50
2018-02-03T22:05:41.486Z,46.40
2018-02-03T22:08:08.974Z,46.50
2018-02-03T22:10:36.494Z,46.30
2018-02-03T22:13:03.964Z,46.30
2018-02-03T22:15:31.469Z,46.00
2018-02-03T22:17:58.970Z,46.20
2018-02-03T22:20:26.442Z,46.20
2018-02-03T22:22:53.972Z,46.10
2018-02-03T22:25:21.494Z,46.20
2018-02-03T22:27:48.989Z,46.00
2018-02-03T22:30:16.465Z,46.00
2018-02-03T22:32:44.143Z,46.00
2018-02-03T22:35:11.610Z,46.00
2018-02-03T22:37:39.148Z,45.90
2018-02-03T22:40:06.909Z,45.90
2018-02-03T22:42:34.388Z,45.90
2018-02-03T22:45:01.870Z,45.90
2018-02-03T22:47:29.386Z,45.80
2018-02-03T22:49:56.868Z,45.80
2018-02-03T22:52:24.380Z,45.80
2018-02-03T22:54:51.846Z,45.80
2018-02-03T22:57:19.301Z,45.80
2018-02-03T22:59:46.789Z,45.80
2018-02-03T23:02:35.044Z,45.80
2018-02-03T23:05:02.519Z,45.80
2018-02-03T23:07:30.038Z,45.70
2018-02-03T23:09:57.516Z,45.80
2018-02-03T23:12:25.002Z,45.80
2018-02-03T23:14:52.466Z,45.70
2018-02-03T23:17:20.701Z,45.70
2018-02-03T23:19:48.188Z,45.70
2018-02-03T23:22:15.709Z,45.50
2018-02-03T23:24:43.171Z,45.70
2018-02-03T23:27:10.640Z,45.40
2018-02-03T23:29:38.108Z,44.60
2018-02-03T23:32:05.575Z,44.40
2018-02-03T23:34:33.065Z,44.20
2018-02-03T23:37:00.595Z,44.20
2018-02-03T23:39:28.070Z,44.10
2018-02-03T23:41:56.317Z,44.00
2018-02-03T23:44:23.997Z,43.90
2018-02-03T23:46:51.497Z,44.00
2018-02-03T23:49:19.011Z,43.90
2018-02-03T23:51:46.457Z,43.70
2018-02-03T23:54:14.193Z,43.70
2018-02-03T23:56:41.662Z,43.70
2018-02-03T23:59:09.142Z,43.70
